createdAt,value
2023-03-29T00:00:01.155Z,60.90
2023-03-29T00:02:42.214Z,61.86
2023-03-29T00:05:13.633Z,61.62
2023-03-29T00:07:43.994Z,62.33
2023-03-29T00:10:14.776Z,61.87
2023-03-29T00:12:45.607Z,62.24
2023-03-29T00:15:16.194Z,63.01
2023-03-29T00:17:46.543Z,63.41
2023-03-29T00:20:16.931Z,64.03
2023-03-29T00:22:48.235Z,63.74
2023-03-29T00:25:18.534Z,63.85
2023-03-29T00:27:49.173Z,64.24
2023-03-29T00:30:19.681Z,64.54
2023-03-29T00:32:49.944Z,65.02
2023-03-29T00:35:20.328Z,64.91
2023-03-29T00:37:52.304Z,65.26
2023-03-29T00:40:22.904Z,65.11
2023-03-29T00:42:52.933Z,63.91
2023-03-29T00:45:24.126Z,62.41
2023-03-29T00:48:01.368Z,61.78
2023-03-29T00:50:33.836Z,60.57
2023-03-29T00:53:06.768Z,60.73
2023-03-29T00:55:44.428Z,60.78
2023-03-29T00:58:17.574Z,60.62
2023-03-29T01:00:53.577Z,60.21
2023-03-29T01:03:28.822Z,59.93
2023-03-29T01:06:02.664Z,59.37
2023-03-29T01:08:35.193Z,59.57
2023-03-29T01:11:12.977Z,58.75
2023-03-29T01:13:46.114Z,59.07
2023-03-29T01:16:17.057Z,58.77
2023-03-29T01:18:48.649Z,58.68
2023-03-29T01:21:22.804Z,58.01
2023-03-29T01:24:14.573Z,58.56
2023-03-29T01:26:56.902Z,58.04
2023-03-29T01:29:47.172Z,58.19
2023-03-29T01:32:23.703Z,57.66
2023-03-29T01:35:14.507Z,57.95
2023-03-29T01:37:51.193Z,57.95
2023-03-29T01:40:21.459Z,57.18
2023-03-29T01:42:54.717Z,57.62
2023-03-29T01:45:48.410Z,57.55
2023-03-29T01:48:26.893Z,57.24
2023-03-29T01:51:01.573Z,56.93
2023-03-29T01:53:37.194Z,57.02
2023-03-29T01:56:15.529Z,56.68
2023-03-29T01:58:52.654Z,56.77
2023-03-29T02:01:24.919Z,57.01
2023-03-29T02:03:57.766Z,56.63
2023-03-29T02:06:29.320Z,56.97
2023-03-29T02:08:59.683Z,56.88
2023-03-29T02:11:30.826Z,56.52
2023-03-29T02:14:01.394Z,56.55
2023-03-29T02:16:36.359Z,56.77
2023-03-29T02:19:09.145Z,56.34
2023-03-29T02:21:45.501Z,55.98
2023-03-29T02:24:18.416Z,56.19
2023-03-29T02:26:49.343Z,56.07
2023-03-29T02:29:19.636Z,55.96
2023-03-29T02:31:55.439Z,56.09
2023-03-29T02:34:25.905Z,56.11
2023-03-29T02:37:01.484Z,56.03
2023-03-29T02:39:35.159Z,55.98
2023-03-29T02:42:05.838Z,56.03
2023-03-29T02:44:38.304Z,55.45
2023-03-29T02:47:12.764Z,55.60
2023-03-29T02:49:42.914Z,55.86
2023-03-29T02:52:16.362Z,55.30
2023-03-29T02:54:49.702Z,55.25
2023-03-29T02:57:23.460Z,55.62
2023-03-29T02:59:54.806Z,54.97
2023-03-29T03:02:29.156Z,54.98
2023-03-29T03:05:00.665Z,55.28
2023-03-29T03:07:31.180Z,55.15
2023-03-29T03:10:03.071Z,55.15
2023-03-29T03:12:34.108Z,54.92
2023-03-29T03:15:07.064Z,54.55
2023-03-29T03:17:41.364Z,54.98
2023-03-29T03:20:15.433Z,54.66
2023-03-29T03:22:51.192Z,54.69
2023-03-29T03:25:23.045Z,54.55
2023-03-29T03:27:53.909Z,54.21
2023-03-29T03:30:26.980Z,54.28
2023-03-29T03:33:20.839Z,54.14
2023-03-29T03:36:09.912Z,54.25
2023-03-29T03:38:40.454Z,54.17
2023-03-29T03:41:10.663Z,54.20
2023-03-29T03:43:44.325Z,53.82
2023-03-29T03:46:14.546Z,53.77
2023-03-29T03:48:47.624Z,53.92
2023-03-29T03:51:46.977Z,53.49
2023-03-29T03:54:17.825Z,53.80
2023-03-29T03:57:08.382Z,53.77
2023-03-29T03:59:46.245Z,53.79
2023-03-29T04:02:22.473Z,53.26
2023-03-29T04:04:52.770Z,53.39
2023-03-29T04:07:26.864Z,53.48
2023-03-29T04:10:15.500Z,53.32
2023-03-29T04:13:11.950Z,53.28
2023-03-29T04:16:02.405Z,53.41
2023-03-29T04:18:33.788Z,53.36
2023-03-29T04:21:04.339Z,52.96
2023-03-29T04:23:37.553Z,53.10
2023-03-29T04:26:09.283Z,53.25
2023-03-29T04:28:54.311Z,52.83
2023-03-29T04:31:37.389Z,52.85
2023-03-29T04:34:23.355Z,52.90
2023-03-29T04:36:56.406Z,52.78
2023-03-29T04:39:34.614Z,52.94
2023-03-29T04:42:07.888Z,52.62
2023-03-29T04:44:38.399Z,52.78
2023-03-29T04:47:14.788Z,52.36
2023-03-29T04:49:59.459Z,52.56
2023-03-29T04:52:52.330Z,52.47
2023-03-29T04:55:23.572Z,52.46
2023-03-29T04:58:04.292Z,52.40
2023-03-29T05:00:36.591Z,52.31
2023-03-29T05:03:52.766Z,52.18
2023-03-29T05:07:07.836Z,52.11
2023-03-29T05:09:38.936Z,52.13
2023-03-29T05:12:18.699Z,52.19
2023-03-29T05:14:54.897Z,51.92
2023-03-29T05:17:28.749Z,52.16
2023-03-29T05:20:13.027Z,51.80
2023-03-29T05:22:46.126Z,51.61
2023-03-29T05:25:29.801Z,51.72
2023-03-29T05:28:01.104Z,51.63
2023-03-29T05:30:31.700Z,51.46
2023-03-29T05:33:09.197Z,51.51
2023-03-29T05:35:39.286Z,51.44
2023-03-29T05:38:11.566Z,51.42
2023-03-29T05:40:42.905Z,51.33
2023-03-29T05:43:15.997Z,51.12
2023-03-29T05:45:46.393Z,51.18
2023-03-29T05:48:16.781Z,51.13
2023-03-29T05:50:49.924Z,50.99
2023-03-29T05:53:21.942Z,50.95
2023-03-29T05:55:52.744Z,51.13
2023-03-29T05:58:27.891Z,50.76
2023-03-29T06:00:58.069Z,50.85
2023-03-29T06:03:47.746Z,50.77
2023-03-29T06:06:20.543Z,50.61
2023-03-29T06:08:50.734Z,50.72
2023-03-29T06:11:36.357Z,50.57
2023-03-29T06:14:29.335Z,50.68
2023-03-29T06:17:12.513Z,50.38
2023-03-29T06:19:42.812Z,50.12
2023-03-29T06:22:14.920Z,50.35
2023-03-29T06:24:45.647Z,49.97
2023-03-29T06:27:25.411Z,50.02
2023-03-29T06:29:56.362Z,49.77
2023-03-29T06:32:27.140Z,49.89
2023-03-29T06:35:06.401Z,49.86
2023-03-29T06:37:50.715Z,49.81
2023-03-29T06:40:41.795Z,49.47
2023-03-29T06:43:13.332Z,49.70
2023-03-29T06:46:13.673Z,49.56
2023-03-29T06:49:03.000Z,49.19
2023-03-29T06:51:39.010Z,49.26
2023-03-29T06:54:09.189Z,48.85
2023-03-29T06:56:43.890Z,48.64
2023-03-29T06:59:17.987Z,48.95
2023-03-29T07:02:01.969Z,49.04
2023-03-29T07:05:02.952Z,48.72
2023-03-29T07:07:58.338Z,48.71
2023-03-29T07:11:00.800Z,48.55
2023-03-29T07:13:50.655Z,48.28
2023-03-29T07:16:23.253Z,48.34
2023-03-29T07:18:59.115Z,48.32
2023-03-29T07:21:56.020Z,48.58
2023-03-29T07:24:38.524Z,48.46
2023-03-29T07:27:10.246Z,48.03
2023-03-29T07:29:40.732Z,48.23
2023-03-29T07:32:11.820Z,47.96
2023-03-29T07:34:44.709Z,47.89
2023-03-29T07:37:23.106Z,47.91
2023-03-29T07:39:53.925Z,48.01
2023-03-29T07:42:45.402Z,48.02
2023-03-29T07:45:26.664Z,47.91
2023-03-29T07:48:02.793Z,47.77
2023-03-29T07:50:48.705Z,47.63
2023-03-29T07:53:22.547Z,47.73
2023-03-29T07:55:56.124Z,47.20
2023-03-29T07:58:49.195Z,47.25
2023-03-29T08:01:21.795Z,46.98
2023-03-29T08:04:07.548Z,47.02
2023-03-29T08:07:10.276Z,47.14
2023-03-29T08:10:03.250Z,46.78
2023-03-29T08:12:56.909Z,46.68
2023-03-29T08:15:35.115Z,46.76
2023-03-29T08:18:06.580Z,46.88
2023-03-29T08:20:37.015Z,46.53
2023-03-29T08:23:07.985Z,46.58
2023-03-29T08:25:57.263Z,47.07
2023-03-29T08:28:28.991Z,46.34
2023-03-29T08:30:59.130Z,46.54
2023-03-29T08:33:29.479Z,46.47
2023-03-29T08:36:18.181Z,46.68
2023-03-29T08:38:49.499Z,46.26
2023-03-29T08:41:44.503Z,46.59
2023-03-29T08:44:41.111Z,46.41
2023-03-29T08:47:31.508Z,46.46
2023-03-29T08:50:02.932Z,46.44
2023-03-29T08:52:56.863Z,45.97
2023-03-29T08:55:54.204Z,46.35
2023-03-29T08:58:39.934Z,46.23
2023-03-29T09:01:12.740Z,45.55
2023-03-29T09:04:16.601Z,46.12
2023-03-29T09:07:13.802Z,46.09
2023-03-29T09:09:48.730Z,45.49
2023-03-29T09:12:35.800Z,45.44
2023-03-29T09:15:12.924Z,46.04
2023-03-29T09:17:52.957Z,45.38
2023-03-29T09:20:25.265Z,45.86
2023-03-29T09:23:13.893Z,45.29
2023-03-29T09:26:20.131Z,45.69
2023-03-29T09:29:26.827Z,45.72
2023-03-29T09:31:58.146Z,45.34
2023-03-29T09:34:40.504Z,45.08
2023-03-29T09:37:27.553Z,45.08
2023-03-29T09:39:59.088Z,45.50
2023-03-29T09:42:46.073Z,45.26
2023-03-29T09:45:16.311Z,45.32
2023-03-29T09:47:50.717Z,45.02
2023-03-29T09:50:31.471Z,45.02
2023-03-29T09:53:06.371Z,44.79
2023-03-29T09:55:42.122Z,44.68
2023-03-29T09:58:38.863Z,45.34
2023-03-29T10:01:13.475Z,44.96
2023-03-29T10:03:44.147Z,44.97
2023-03-29T10:06:18.330Z,45.33
2023-03-29T10:08:56.500Z,45.16
2023-03-29T10:11:34.776Z,45.27
2023-03-29T10:14:14.138Z,45.51
2023-03-29T10:16:48.986Z,45.44
2023-03-29T10:19:24.144Z,45.12
2023-03-29T10:21:56.107Z,45.89
2023-03-29T10:24:28.194Z,46.35
2023-03-29T10:27:06.225Z,47.14
2023-03-29T10:29:42.683Z,47.29
2023-03-29T10:32:17.676Z,46.67
2023-03-29T10:34:49.220Z,45.63
2023-03-29T10:37:22.704Z,45.33
2023-03-29T10:39:55.710Z,44.46
2023-03-29T10:42:26.485Z,44.77
2023-03-29T10:44:58.091Z,44.35
2023-03-29T10:47:35.760Z,44.89
2023-03-29T10:50:07.498Z,44.60
2023-03-29T10:52:37.660Z,45.59
2023-03-29T10:55:08.031Z,45.89
2023-03-29T10:57:56.543Z,45.75
2023-03-29T11:00:34.760Z,47.22
2023-03-29T11:06:09.675Z,48.83
2023-03-29T11:09:15.591Z,49.67
2023-03-29T11:12:15.959Z,49.49
2023-03-29T11:15:10.335Z,48.93
2023-03-29T11:17:40.570Z,48.51
2023-03-29T11:20:21.117Z,48.73
2023-03-29T11:22:57.045Z,48.34
2023-03-29T11:25:33.612Z,47.72
2023-03-29T11:28:33.518Z,47.66
2023-03-29T11:31:18.363Z,47.11
2023-03-29T11:33:57.836Z,47.21
2023-03-29T11:36:35.596Z,47.06
2023-03-29T11:39:15.126Z,47.18
2023-03-29T11:41:47.773Z,47.43
2023-03-29T11:44:37.275Z,47.08
2023-03-29T11:47:11.718Z,47.13
2023-03-29T11:49:45.456Z,47.62
2023-03-29T11:52:19.007Z,47.84
2023-03-29T11:55:10.627Z,47.85
2023-03-29T11:57:49.791Z,49.14
2023-03-29T12:00:29.280Z,50.23
2023-03-29T12:03:16.915Z,51.15
2023-03-29T12:05:53.150Z,51.45
2023-03-29T12:08:27.083Z,51.77
2023-03-29T12:11:07.020Z,52.38
2023-03-29T12:13:46.393Z,52.94
2023-03-29T12:16:35.031Z,53.46
2023-03-29T12:19:08.883Z,53.68
2023-03-29T12:21:39.409Z,54.01
2023-03-29T12:24:14.515Z,53.99
2023-03-29T12:26:45.221Z,54.25
2023-03-29T12:29:15.565Z,52.61
2023-03-29T12:31:45.828Z,52.08
2023-03-29T12:34:36.555Z,53.02
2023-03-29T12:37:24.902Z,53.09
2023-03-29T12:40:27.674Z,51.53
2023-03-29T12:43:27.682Z,49.46
2023-03-29T12:46:20.690Z,46.97
2023-03-29T12:48:58.527Z,45.94
2023-03-29T12:51:34.055Z,44.72
2023-03-29T12:54:15.966Z,44.15
2023-03-29T12:56:57.316Z,43.78
2023-03-29T12:59:48.248Z,43.02
2023-03-29T13:02:21.351Z,42.35
2023-03-29T13:04:53.687Z,41.92
2023-03-29T13:07:24.254Z,41.44
2023-03-29T13:09:59.372Z,41.01
2023-03-29T13:12:42.411Z,40.62
2023-03-29T13:15:19.226Z,40.48
2023-03-29T13:17:55.932Z,40.42
2023-03-29T13:20:33.362Z,40.82
2023-03-29T13:23:22.557Z,40.60
2023-03-29T13:25:52.795Z,40.34
2023-03-29T13:28:38.613Z,39.42
2023-03-29T13:31:20.680Z,39.71
2023-03-29T13:33:54.160Z,39.91
2023-03-29T13:36:24.508Z,40.22
2023-03-29T13:38:57.035Z,40.39
2023-03-29T13:41:34.126Z,40.84
2023-03-29T13:44:05.203Z,40.62
2023-03-29T13:46:43.896Z,41.09
2023-03-29T13:49:17.705Z,40.49
2023-03-29T13:51:51.044Z,40.21
2023-03-29T13:54:45.712Z,40.07
2023-03-29T13:57:15.992Z,41.08
2023-03-29T13:59:49.813Z,41.73
2023-03-29T14:02:32.972Z,40.93
2023-03-29T14:05:08.248Z,40.37
2023-03-29T14:07:40.865Z,40.13
2023-03-29T14:10:15.777Z,39.71
2023-03-29T14:12:47.082Z,40.93
2023-03-29T14:15:23.122Z,40.79
2023-03-29T14:18:00.644Z,40.12
2023-03-29T14:20:33.515Z,39.63
2023-03-29T14:23:11.038Z,39.97
2023-03-29T14:25:46.525Z,39.83
2023-03-29T14:28:28.591Z,41.94
2023-03-29T14:31:03.249Z,41.77
2023-03-29T14:33:42.968Z,43.03
2023-03-29T14:36:19.515Z,43.45
2023-03-29T14:38:54.217Z,42.71
2023-03-29T14:41:40.704Z,41.78
2023-03-29T14:44:13.942Z,40.93
2023-03-29T14:46:49.510Z,40.70
2023-03-29T14:49:21.575Z,40.59
2023-03-29T14:51:56.315Z,40.42
2023-03-29T14:54:34.229Z,40.36
2023-03-29T14:57:10.517Z,39.57
2023-03-29T14:59:43.641Z,39.72
2023-03-29T15:02:28.199Z,39.82
2023-03-29T15:05:08.206Z,39.50
2023-03-29T15:07:43.676Z,39.19
2023-03-29T15:10:19.966Z,39.24
2023-03-29T15:12:51.814Z,39.40
2023-03-29T15:15:22.762Z,39.92
2023-03-29T15:17:53.722Z,39.31
2023-03-29T15:20:28.983Z,39.45
2023-03-29T15:23:06.155Z,39.58
2023-03-29T15:25:38.695Z,39.13
2023-03-29T15:28:27.562Z,38.71
2023-03-29T15:31:08.184Z,38.68
2023-03-29T15:33:40.894Z,38.58
2023-03-29T15:36:12.910Z,38.17
2023-03-29T15:38:45.438Z,38.47
2023-03-29T15:41:16.782Z,37.87
2023-03-29T15:43:47.734Z,38.54
2023-03-29T15:46:18.200Z,38.34
2023-03-29T15:48:48.505Z,38.02
2023-03-29T15:51:18.867Z,37.83
2023-03-29T15:53:49.055Z,38.01
2023-03-29T15:56:21.244Z,37.58
2023-03-29T15:58:52.402Z,38.18
2023-03-29T16:01:24.858Z,39.57
2023-03-29T16:03:55.077Z,42.35
2023-03-29T16:06:25.521Z,41.79
2023-03-29T16:08:57.358Z,41.40
2023-03-29T16:11:29.901Z,40.44
2023-03-29T16:14:00.274Z,40.39
2023-03-29T16:16:30.639Z,40.43
2023-03-29T16:19:01.083Z,39.86
2023-03-29T16:21:32.035Z,39.59
2023-03-29T16:24:03.025Z,39.73
2023-03-29T16:26:33.211Z,39.11
2023-03-29T16:29:03.508Z,38.79
2023-03-29T16:31:33.851Z,38.75
2023-03-29T16:34:05.087Z,38.91
2023-03-29T16:36:36.417Z,38.45
2023-03-29T16:39:07.519Z,38.77
2023-03-29T16:41:38.311Z,38.77
2023-03-29T16:44:08.614Z,38.78
2023-03-29T16:46:39.235Z,38.81
2023-03-29T16:49:12.980Z,38.71
2023-03-29T16:51:43.219Z,38.68
2023-03-29T16:54:13.540Z,38.68
2023-03-29T16:56:43.848Z,38.14
2023-03-29T16:59:14.559Z,38.65
2023-03-29T17:01:45.124Z,38.31
2023-03-29T17:04:15.442Z,38.72
2023-03-29T17:06:46.151Z,38.70
2023-03-29T17:09:18.210Z,38.28
2023-03-29T17:11:48.886Z,38.58
2023-03-29T17:14:19.064Z,38.05
2023-03-29T17:16:49.137Z,38.56
2023-03-29T17:19:19.192Z,38.58
2023-03-29T17:21:49.282Z,38.26
2023-03-29T17:24:19.526Z,38.58
2023-03-29T17:26:49.629Z,38.65
2023-03-29T17:29:20.202Z,38.19
2023-03-29T17:31:50.704Z,38.15
2023-03-29T17:34:21.174Z,38.49
2023-03-29T17:36:54.675Z,38.13
2023-03-29T17:39:26.568Z,37.99
2023-03-29T17:41:56.683Z,38.44
2023-03-29T17:44:28.366Z,38.10
2023-03-29T17:46:58.415Z,38.12
2023-03-29T17:49:28.558Z,38.41
2023-03-29T17:51:58.621Z,38.31
2023-03-29T17:54:28.728Z,38.41
2023-03-29T17:56:58.825Z,38.26
2023-03-29T17:59:29.581Z,38.63
2023-03-29T18:01:59.673Z,38.17
2023-03-29T18:04:29.737Z,38.12
2023-03-29T18:07:00.001Z,38.66
2023-03-29T18:09:30.864Z,38.64
2023-03-29T18:12:02.133Z,38.27
2023-03-29T18:14:32.386Z,38.72
2023-03-29T18:17:03.858Z,38.40
2023-03-29T18:19:33.989Z,38.71
2023-03-29T18:22:04.111Z,38.28
2023-03-29T18:24:34.224Z,38.67
2023-03-29T18:27:04.381Z,38.65
2023-03-29T18:29:34.437Z,38.60
2023-03-29T18:32:06.004Z,38.30
2023-03-29T18:34:36.188Z,38.08
2023-03-29T18:37:07.442Z,38.46
2023-03-29T18:39:37.459Z,38.83
2023-03-29T18:42:08.755Z,38.52
2023-03-29T18:44:41.641Z,38.21
2023-03-29T18:47:11.789Z,38.26
2023-03-29T18:49:42.195Z,38.49
2023-03-29T18:52:12.335Z,38.45
2023-03-29T18:54:43.104Z,38.74
2023-03-29T18:57:13.529Z,38.50
2023-03-29T18:59:43.623Z,38.52
2023-03-29T19:02:14.169Z,38.81
2023-03-29T19:04:44.313Z,38.50
2023-03-29T19:07:14.889Z,38.41
2023-03-29T19:09:45.153Z,38.58
2023-03-29T19:12:15.214Z,38.83
2023-03-29T19:14:45.362Z,38.51
2023-03-29T19:17:15.945Z,38.90
2023-03-29T19:19:46.054Z,38.70
2023-03-29T19:22:16.249Z,38.86
2023-03-29T19:24:46.930Z,38.70
2023-03-29T19:27:16.956Z,38.68
2023-03-29T19:29:47.591Z,38.57
2023-03-29T19:32:17.796Z,39.07
2023-03-29T19:34:49.036Z,38.94
2023-03-29T19:37:19.199Z,39.58
2023-03-29T19:39:49.665Z,39.28
2023-03-29T19:42:19.703Z,39.27
2023-03-29T19:44:49.728Z,39.07
2023-03-29T19:47:19.858Z,39.50
2023-03-29T19:49:50.687Z,39.17
2023-03-29T19:52:24.989Z,39.12
2023-03-29T19:54:55.660Z,39.20
2023-03-29T19:57:26.347Z,39.07
2023-03-29T19:59:56.538Z,39.13
2023-03-29T20:02:26.878Z,39.20
2023-03-29T20:04:59.051Z,39.07
2023-03-29T20:07:29.131Z,39.08
2023-03-29T20:09:59.238Z,38.93
2023-03-29T20:12:29.233Z,38.88
2023-03-29T20:14:59.270Z,39.36
2023-03-29T20:17:29.986Z,39.23
2023-03-29T20:20:00.482Z,39.19
2023-03-29T20:22:32.615Z,39.19
2023-03-29T20:25:02.701Z,39.14
2023-03-29T20:27:33.058Z,38.82
2023-03-29T20:30:03.231Z,39.15
2023-03-29T20:32:33.515Z,39.25
2023-03-29T20:35:03.569Z,38.86
2023-03-29T20:37:34.324Z,38.94
2023-03-29T20:40:06.808Z,39.42
2023-03-29T20:42:38.159Z,39.29
2023-03-29T20:45:09.457Z,39.29
2023-03-29T20:47:43.679Z,39.10
2023-03-29T20:50:13.755Z,39.37
2023-03-29T20:52:44.002Z,39.09
2023-03-29T20:55:14.694Z,39.07
2023-03-29T20:57:44.893Z,39.03
2023-03-29T21:00:15.968Z,38.83
2023-03-29T21:02:46.114Z,39.04
2023-03-29T21:05:17.165Z,39.09
2023-03-29T21:07:49.387Z,39.24
2023-03-29T21:10:19.510Z,39.11
2023-03-29T21:12:49.924Z,39.09
2023-03-29T21:15:20.151Z,39.15
2023-03-29T21:17:50.242Z,39.15
2023-03-29T21:20:20.473Z,39.15
2023-03-29T21:22:50.996Z,39.12
2023-03-29T21:25:21.324Z,39.26
2023-03-29T21:27:51.335Z,39.06
2023-03-29T21:30:21.443Z,39.11
2023-03-29T21:32:51.654Z,38.97
2023-03-29T21:35:22.100Z,39.10
2023-03-29T21:37:52.409Z,38.90
2023-03-29T21:40:22.636Z,39.18
2023-03-29T21:42:53.794Z,39.20
2023-03-29T21:45:23.914Z,39.24
2023-03-29T21:47:54.290Z,39.07
2023-03-29T21:50:24.906Z,39.41
2023-03-29T21:52:54.918Z,39.41
2023-03-29T21:55:24.930Z,39.51
2023-03-29T21:57:55.184Z,39.48
2023-03-29T22:00:25.382Z,39.69
2023-03-29T22:02:55.495Z,39.39
2023-03-29T22:05:27.479Z,39.33
2023-03-29T22:08:35.768Z,39.27
2023-03-29T22:11:08.858Z,39.36
2023-03-29T22:13:39.240Z,39.22
2023-03-29T22:16:19.669Z,39.32
2023-03-29T22:18:53.973Z,39.12
2023-03-29T22:21:25.808Z,39.24
2023-03-29T22:23:59.768Z,39.51
2023-03-29T22:26:31.358Z,40.04
2023-03-29T22:29:02.804Z,40.11
2023-03-29T22:31:33.268Z,40.38
2023-03-29T22:34:04.196Z,40.32
2023-03-29T22:36:34.598Z,40.62
2023-03-29T22:39:05.267Z,40.74
2023-03-29T22:41:35.345Z,40.79
2023-03-29T22:44:05.891Z,40.71
2023-03-29T22:46:36.158Z,40.90
2023-03-29T22:49:06.321Z,41.14
2023-03-29T22:51:36.386Z,41.19
2023-03-29T22:54:06.717Z,41.26
2023-03-29T22:56:37.071Z,41.59
2023-03-29T22:59:07.311Z,41.45
2023-03-29T23:01:37.378Z,42.09
2023-03-29T23:04:07.860Z,43.20
2023-03-29T23:06:38.045Z,43.62
2023-03-29T23:09:08.304Z,43.68
2023-03-29T23:11:38.428Z,44.16
2023-03-29T23:14:09.057Z,45.00
2023-03-29T23:16:39.311Z,44.95
2023-03-29T23:19:09.906Z,45.33
2023-03-29T23:21:40.518Z,45.64
2023-03-29T23:24:11.044Z,45.43
2023-03-29T23:26:41.229Z,45.34
2023-03-29T23:29:11.374Z,45.76
2023-03-29T23:31:41.499Z,54.46
2023-03-29T23:34:12.073Z,59.14
2023-03-29T23:36:42.322Z,60.65
2023-03-29T23:39:12.417Z,61.47
2023-03-29T23:41:42.736Z,62.65
2023-03-29T23:44:12.807Z,62.85
2023-03-29T23:46:43.427Z,63.00
2023-03-29T23:49:13.680Z,67.03
2023-03-29T23:51:46.275Z,68.62
2023-03-29T23:54:16.694Z,69.32
2023-03-29T23:56:46.865Z,70.33
2023-03-29T23:59:17.260Z,70.74
